sensor_id;sensor_type;location;lat;lon;timestamp;pressure;altitude;pressure_sealevel;temperature;humidity
26839;BME280;40088;51.214;6.786;2023-06-14T00:05:41;101079.50;;;20.73;63.74
26839;BME280;40088;51.214;6.786;2023-06-14T00:15:43;101098.88;;;20.73;63.91
26839;BME280;40088;51.214;6.786;2023-06-14T00:25:44;101096.13;;;20.73;63.61
26839;BME280;40088;51.214;6.786;2023-06-14T00:35:44;101098.03;;;20.73;63.70
26839;BME280;40088;51.214;6.786;2023-06-14T00:45:44;101100.81;;;20.73;63.43
26839;BME280;40088;51.214;6.786;2023-06-14T00:55:46;101097.16;;;20.72;63.38
26839;BME280;40088;51.214;6.786;2023-06-14T01:05:47;101108.22;;;20.72;63.56
26839;BME280;40088;51.214;6.786;2023-06-14T01:15:50;101116.34;;;20.74;63.16
26839;BME280;40088;51.214;6.786;2023-06-14T01:25:51;101121.03;;;20.73;63.38
26839;BME280;40088;51.214;6.786;2023-06-14T01:46:52;101118.28;;;20.73;62.97
26839;BME280;40088;51.214;6.786;2023-06-14T01:56:52;101123.81;;;20.73;62.86
26839;BME280;40088;51.214;6.786;2023-06-14T02:06:53;101120.19;;;20.73;62.96
26839;BME280;40088;51.214;6.786;2023-06-14T02:16:53;101110.81;;;20.74;62.78
26839;BME280;40088;51.214;6.786;2023-06-14T02:26:53;101117.41;;;20.73;62.74
26839;BME280;40088;51.214;6.786;2023-06-14T02:36:54;101112.72;;;20.73;62.57
26839;BME280;40088;51.214;6.786;2023-06-14T02:46:55;101120.19;;;20.73;62.43
26839;BME280;40088;51.214;6.786;2023-06-14T02:56:55;101133.16;;;20.72;62.90
26839;BME280;40088;51.214;6.786;2023-06-14T03:06:55;101148.72;;;20.73;62.75
26839;BME280;40088;51.214;6.786;2023-06-14T03:16:56;101160.84;;;20.72;62.22
26839;BME280;40088;51.214;6.786;2023-06-14T03:26:57;101167.28;;;20.73;62.23
26839;BME280;40088;51.214;6.786;2023-06-14T03:36:57;101171.94;;;20.72;62.00
26839;BME280;40088;51.214;6.786;2023-06-14T03:46:57;101176.44;;;20.73;62.26
26839;BME280;40088;51.214;6.786;2023-06-14T03:56:58;101182.16;;;20.72;61.91
26839;BME280;40088;51.214;6.786;2023-06-14T04:06:58;101200.50;;;20.73;61.81
26839;BME280;40088;51.214;6.786;2023-06-14T04:17:00;101196.84;;;20.72;62.20
26839;BME280;40088;51.214;6.786;2023-06-14T04:27:01;101208.81;;;20.73;61.67
26839;BME280;40088;51.214;6.786;2023-06-14T04:37:01;101225.44;;;20.73;61.90
26839;BME280;40088;51.214;6.786;2023-06-14T04:47:01;101230.09;;;20.72;61.74
26839;BME280;40088;51.214;6.786;2023-06-14T04:57:02;101238.41;;;20.72;61.54
26839;BME280;40088;51.214;6.786;2023-06-14T05:07:02;101250.53;;;20.71;61.55
26839;BME280;40088;51.214;6.786;2023-06-14T05:17:03;101263.31;;;20.72;61.79
26839;BME280;40088;51.214;6.786;2023-06-14T05:27:03;101262.47;;;20.72;61.73
26839;BME280;40088;51.214;6.786;2023-06-14T05:37:04;101267.16;;;20.71;61.31
26839;BME280;40088;51.214;6.786;2023-06-14T05:47:04;101266.31;;;20.71;61.71
26839;BME280;40088;51.214;6.786;2023-06-14T05:57:05;101275.47;;;20.71;61.38
26839;BME280;40088;51.214;6.786;2023-06-14T06:07:06;101285.47;;;20.72;61.34
26839;BME280;40088;51.214;6.786;2023-06-14T06:17:06;101285.47;;;20.72;61.46
26839;BME280;40088;51.214;6.786;2023-06-14T06:27:06;101284.63;;;20.72;60.82
26839;BME280;40088;51.214;6.786;2023-06-14T06:37:08;101294.66;;;20.73;61.52
26839;BME280;40088;51.214;6.786;2023-06-14T06:47:08;101297.44;;;20.73;61.63
26839;BME280;40088;51.214;6.786;2023-06-14T06:57:09;101304.00;;;20.72;61.83
26839;BME280;40088;51.214;6.786;2023-06-14T07:07:11;101324.25;;;20.72;61.91
26839;BME280;40088;51.214;6.786;2023-06-14T07:17:11;101327.03;;;20.72;61.93
26839;BME280;40088;51.214;6.786;2023-06-14T07:27:11;101325.13;;;20.73;61.99
26839;BME280;40088;51.214;6.786;2023-06-14T07:37:13;101327.03;;;20.72;61.90
26839;BME280;40088;51.214;6.786;2023-06-14T07:47:13;101326.63;;;20.75;61.80
26839;BME280;40088;51.214;6.786;2023-06-14T07:57:13;101329.38;;;20.75;62.32
26839;BME280;40088;51.214;6.786;2023-06-14T08:07:14;101331.09;;;20.76;62.17
26839;BME280;40088;51.214;6.786;2023-06-14T08:17:14;101336.63;;;20.76;62.17
26839;BME280;40088;51.214;6.786;2023-06-14T08:27:15;101335.56;;;20.77;62.52
26839;BME280;40088;51.214;6.786;2023-06-14T08:37:15;101341.09;;;20.77;62.48
26839;BME280;40088;51.214;6.786;2023-06-14T08:47:16;101341.09;;;20.77;62.10
26839;BME280;40088;51.214;6.786;2023-06-14T08:57:18;101337.28;;;20.78;62.17
26839;BME280;40088;51.214;6.786;2023-06-14T09:07:20;101328.97;;;20.78;62.52
26839;BME280;40088;51.214;6.786;2023-06-14T09:17:22;101350.06;;;20.79;62.39
26839;BME280;40088;51.214;6.786;2023-06-14T09:27:25;101342.63;;;20.80;62.74
26839;BME280;40088;51.214;6.786;2023-06-14T09:37:30;101356.69;;;20.78;63.04
26839;BME280;40088;51.214;6.786;2023-06-14T09:47:31;101367.75;;;20.78;62.84
26839;BME280;40088;51.214;6.786;2023-06-14T09:57:32;101363.06;;;20.79;62.58
26839;BME280;40088;51.214;6.786;2023-06-14T10:07:56;101373.31;;;20.78;62.99
26839;BME280;40088;51.214;6.786;2023-06-14T10:18:11;101362.22;;;20.78;62.65
26839;BME280;40088;51.214;6.786;2023-06-14T10:28:21;101373.09;;;20.80;62.59
26839;BME280;40088;51.214;6.786;2023-06-14T10:38:30;101361.78;;;20.81;62.57
26839;BME280;40088;51.214;6.786;2023-06-14T10:48:32;101356.25;;;20.81;62.72
26839;BME280;40088;51.214;6.786;2023-06-14T10:58:32;101350.72;;;20.81;62.75
26839;BME280;40088;51.214;6.786;2023-06-14T11:18:48;101341.53;;;20.81;63.25
26839;BME280;40088;51.214;6.786;2023-06-14T11:28:55;101336.00;;;20.81;63.10
26839;BME280;40088;51.214;6.786;2023-06-14T11:39:03;101331.31;;;20.81;62.99
26839;BME280;40088;51.214;6.786;2023-06-14T11:49:06;101324.72;;;20.83;62.79
26839;BME280;40088;51.214;6.786;2023-06-14T11:59:07;101320.06;;;20.83;62.88
26839;BME280;40088;51.214;6.786;2023-06-14T12:09:08;101317.91;;;20.85;62.76
26839;BME280;40088;51.214;6.786;2023-06-14T12:19:14;101317.06;;;20.85;62.86
26839;BME280;40088;51.214;6.786;2023-06-14T12:29:15;101313.22;;;20.86;63.12
26839;BME280;40088;51.214;6.786;2023-06-14T12:39:15;101311.31;;;20.86;63.25
26839;BME280;40088;51.214;6.786;2023-06-14T12:49:16;101317.69;;;20.87;62.98
26839;BME280;40088;51.214;6.786;2023-06-14T12:59:17;101314.94;;;20.87;62.99
26839;BME280;40088;51.214;6.786;2023-06-14T13:09:18;101310.25;;;20.87;63.20
26839;BME280;40088;51.214;6.786;2023-06-14T13:19:18;101307.28;;;20.89;63.12
26839;BME280;40088;51.214;6.786;2023-06-14T13:29:18;101314.94;;;20.87;63.36
26839;BME280;40088;51.214;6.786;2023-06-14T13:39:19;101307.69;;;20.86;63.73
26839;BME280;40088;51.214;6.786;2023-06-14T13:49:19;101302.16;;;20.86;63.63
26839;BME280;40088;51.214;6.786;2023-06-14T13:59:19;101293.84;;;20.86;63.46
26839;BME280;40088;51.214;6.786;2023-06-14T14:09:20;101297.47;;;20.86;63.68
26839;BME280;40088;51.214;6.786;2023-06-14T14:19:21;101284.69;;;20.85;63.70
26839;BME280;40088;51.214;6.786;2023-06-14T14:29:22;101291.06;;;20.86;63.15
26839;BME280;40088;51.214;6.786;2023-06-14T14:39:23;101294.91;;;20.85;63.38
26839;BME280;40088;51.214;6.786;2023-06-14T14:49:24;101299.38;;;20.86;63.60
26839;BME280;40088;51.214;6.786;2023-06-14T14:59:25;101291.91;;;20.86;63.58
26839;BME280;40088;51.214;6.786;2023-06-14T15:09:25;101291.06;;;20.86;63.51
26839;BME280;40088;51.214;6.786;2023-06-14T15:19:26;101287.22;;;20.87;63.49
26839;BME280;40088;51.214;6.786;2023-06-14T15:29:26;101291.91;;;20.86;63.54
26839;BME280;40088;51.214;6.786;2023-06-14T15:39:26;101299.16;;;20.87;63.65
26839;BME280;40088;51.214;6.786;2023-06-14T15:49:27;101295.53;;;20.87;63.57
26839;BME280;40088;51.214;6.786;2023-06-14T15:59:27;101305.78;;;20.86;63.21
26839;BME280;40088;51.214;6.786;2023-06-14T16:09:28;101290.00;;;20.87;63.61
26839;BME280;40088;51.214;6.786;2023-06-14T16:19:28;101294.47;;;20.88;63.49
26839;BME280;40088;51.214;6.786;2023-06-14T16:29:28;101300.22;;;20.86;63.09
26839;BME280;40088;51.214;6.786;2023-06-14T16:39:29;101297.25;;;20.88;63.54
26839;BME280;40088;51.214;6.786;2023-06-14T16:49:29;101305.56;;;20.88;63.35
26839;BME280;40088;51.214;6.786;2023-06-14T16:59:29;101322.16;;;20.88;63.25
26839;BME280;40088;51.214;6.786;2023-06-14T17:09:30;101319.41;;;20.88;63.60
26839;BME280;40088;51.214;6.786;2023-06-14T17:19:30;101327.72;;;20.88;63.11
26839;BME280;40088;51.214;6.786;2023-06-14T17:29:30;101330.47;;;20.88;63.49
26839;BME280;40088;51.214;6.786;2023-06-14T17:39:30;101345.22;;;20.88;63.47
26839;BME280;40088;51.214;6.786;2023-06-14T17:49:31;101349.88;;;20.88;63.61
26839;BME280;40088;51.214;6.786;2023-06-14T17:59:32;101355.41;;;20.88;63.49
26839;BME280;40088;51.214;6.786;2023-06-14T18:09:32;101360.97;;;20.88;63.13
26839;BME280;40088;51.214;6.786;2023-06-14T18:19:32;101367.38;;;20.88;63.00
26839;BME280;40088;51.214;6.786;2023-06-14T18:29:33;101390.41;;;20.89;63.18
26839;BME280;40088;51.214;6.786;2023-06-14T18:39:33;101393.16;;;20.89;63.54
26839;BME280;40088;51.214;6.786;2023-06-14T18:49:34;101389.53;;;20.88;63.50
26839;BME280;40088;51.214;6.786;2023-06-14T18:59:34;101391.25;;;20.89;63.11
26839;BME280;40088;51.214;6.786;2023-06-14T19:09:35;101401.47;;;20.89;63.33
26839;BME280;40088;51.214;6.786;2023-06-14T19:19:35;101404.25;;;20.89;63.45
26839;BME280;40088;51.214;6.786;2023-06-14T19:29:35;101415.31;;;20.89;63.42
26839;BME280;40088;51.214;6.786;2023-06-14T19:39:36;101422.56;;;20.90;63.07
26839;BME280;40088;51.214;6.786;2023-06-14T19:49:36;101428.09;;;20.90;63.13
26839;BME280;40088;51.214;6.786;2023-06-14T19:59:36;101429.19;;;20.89;63.30
26839;BME280;40088;51.214;6.786;2023-06-14T20:09:37;101450.28;;;20.90;62.86
26839;BME280;40088;51.214;6.786;2023-06-14T20:19:38;101446.66;;;20.89;63.26
26839;BME280;40088;51.214;6.786;2023-06-14T20:29:38;101479.69;;;20.91;63.15
26839;BME280;40088;51.214;6.786;2023-06-14T20:39:39;101483.53;;;20.90;62.92
26839;BME280;40088;51.214;6.786;2023-06-14T20:49:39;101482.66;;;20.89;63.04
26839;BME280;40088;51.214;6.786;2023-06-14T20:59:41;101486.28;;;20.90;63.16
26839;BME280;40088;51.214;6.786;2023-06-14T21:09:41;101496.50;;;20.89;63.04
26839;BME280;40088;51.214;6.786;2023-06-14T21:19:41;101504.63;;;20.91;62.79
26839;BME280;40088;51.214;6.786;2023-06-14T21:29:42;101504.63;;;20.91;63.32
26839;BME280;40088;51.214;6.786;2023-06-14T21:39:42;101494.59;;;20.90;62.92
26839;BME280;40088;51.214;6.786;2023-06-14T21:49:42;101507.38;;;20.91;62.90
26839;BME280;40088;51.214;6.786;2023-06-14T21:59:43;101502.91;;;20.90;62.79
26839;BME280;40088;51.214;6.786;2023-06-14T22:09:44;101508.44;;;20.90;62.83
26839;BME280;40088;51.214;6.786;2023-06-14T22:19:46;101515.69;;;20.91;62.81
26839;BME280;40088;51.214;6.786;2023-06-14T22:29:50;101512.06;;;20.90;62.86
26839;BME280;40088;51.214;6.786;2023-06-14T22:39:56;101510.16;;;20.91;62.57
26839;BME280;40088;51.214;6.786;2023-06-14T22:49:57;101514.84;;;20.90;62.94
26839;BME280;40088;51.214;6.786;2023-06-14T22:59:57;101512.94;;;20.91;62.89
26839;BME280;40088;51.214;6.786;2023-06-14T23:09:58;101527.63;;;20.91;62.97
26839;BME280;40088;51.214;6.786;2023-06-14T23:20:01;101515.69;;;20.91;62.80
26839;BME280;40088;51.214;6.786;2023-06-14T23:30:11;101507.59;;;20.89;62.65
26839;BME280;40088;51.214;6.786;2023-06-14T23:40:13;101510.16;;;20.91;62.94
26839;BME280;40088;51.214;6.786;2023-06-14T23:50:14;101514.00;;;20.90;62.82
